Time;durP1;ratioP1;P1;durP2;ratioP2;P2;SDS_P1;SDS_P2;PMS_P1;PMS_P2;Temp;Humidity;BMP_temperature;BMP_pressure;BME280_temperature;BME280_humidity;BME280_pressure;Samples;Min_cycle;Max_cycle;Signal;HPM_P1;HPM_P2
2023/09/24 00:02:13;;;;;;;6.38;4.22;;;;;;;10.71;78.78;98901.06;5050457;28;20065;-70
2023/09/24 00:04:39;;;;;;;4.88;4.43;;;;;;;10.63;79.26;98917.56;5040345;28;20087;-71
2023/09/24 00:07:05;;;;;;;4.57;3.85;;;;;;;10.44;79.33;98905.16;5051877;28;20435;-71
2023/09/24 00:09:31;;;;;;;5.75;4.55;;;;;;;10.52;79.42;98923.72;5048850;28;20539;-71
2023/09/24 00:11:57;;;;;;;7.40;4.75;;;;;;;10.41;79.52;98919.06;5038387;28;20037;-70
2023/09/24 00:14:23;;;;;;;5.57;4.13;;;;;;;10.25;79.73;98895.44;5053100;28;20299;-70
2023/09/24 00:16:48;;;;;;;5.28;4.30;;;;;;;10.41;79.84;98924.44;5038595;28;20127;-71
2023/09/24 00:19:14;;;;;;;5.38;4.38;;;;;;;10.24;80.21;98918.03;5048902;28;20026;-71
2023/09/24 00:21:39;;;;;;;8.35;4.30;;;;;;;10.19;81.04;98910.63;5036907;28;20167;-70
2023/09/24 00:24:06;;;;;;;4.25;3.55;;;;;;;10.40;80.44;98918.25;5041572;28;20021;-70
2023/09/24 00:26:32;;;;;;;4.97;3.88;;;;;;;10.41;80.19;98924.44;5046698;28;20509;-68
2023/09/24 00:28:57;;;;;;;6.22;3.60;;;;;;;10.35;80.74;98919.97;5026996;28;20068;-68
2023/09/24 00:31:23;;;;;;;5.85;3.78;;;;;;;10.30;80.31;98912.56;5039782;28;20044;-69
2023/09/24 00:33:51;;;;;;;3.97;3.50;;;;;;;10.43;79.96;98931.25;5068112;28;20025;-69
2023/09/24 00:36:17;;;;;;;3.92;3.50;;;;;;;10.36;79.96;98921.63;5046699;28;20105;-69
2023/09/24 00:38:43;;;;;;;6.40;3.38;;;;;;;10.43;79.91;98933.13;5040478;28;20037;-69
2023/09/24 00:41:08;;;;;;;4.22;3.55;;;;;;;10.14;80.00;98890.81;5047055;28;20119;-70
2023/09/24 00:43:34;;;;;;;4.30;3.40;;;;;;;10.39;79.98;98942.69;5042783;28;20484;-69
2023/09/24 00:46:02;;;;;;;4.68;3.70;;;;;;;10.38;79.67;98938.38;5033486;28;20498;-70
2023/09/24 00:48:29;;;;;;;5.53;3.83;;;;;;;10.23;79.48;98917.19;5060015;28;20477;-68
2023/09/24 00:50:59;;;;;;;5.38;3.80;;;;;;;10.25;79.11;98935.81;5038038;28;20131;-69
2023/09/24 00:53:29;;;;;;;7.85;4.90;;;;;;;10.26;79.56;98948.25;5038761;28;20036;-69
2023/09/24 00:55:55;;;;;;;5.40;3.58;;;;;;;10.07;79.34;98925.84;5031276;28;20079;-69
2023/09/24 00:58:23;;;;;;;4.72;3.90;;;;;;;10.12;79.82;98952.13;5048102;28;20029;-69
2023/09/24 01:00:51;;;;;;;4.45;4.05;;;;;;;10.14;79.59;98950.03;5031344;28;20021;-69
2023/09/24 01:03:18;;;;;;;5.68;3.95;;;;;;;9.93;79.64;98926.19;5043257;28;20496;-70
2023/09/24 01:05:44;;;;;;;7.43;4.18;;;;;;;10.11;79.91;98953.97;5031551;28;20481;-72
2023/09/24 01:08:10;;;;;;;5.20;4.70;;;;;;;10.05;79.40;98945.94;5061886;28;20063;-73
2023/09/24 01:10:36;;;;;;;7.00;3.80;;;;;;;9.90;80.21;98942.78;5051355;28;20087;-72
2023/09/24 01:13:05;;;;;;;5.30;4.80;;;;;;;9.87;79.43;98943.22;5052459;28;20755;-72
2023/09/24 01:15:32;;;;;;;7.30;3.92;;;;;;;9.99;79.31;98963.00;5050275;28;20090;-72
2023/09/24 01:17:57;;;;;;;4.70;3.47;;;;;;;9.95;79.62;98959.06;5052322;28;20029;-72
2023/09/24 01:20:24;;;;;;;4.70;3.78;;;;;;;9.93;79.49;98958.47;5047941;28;20516;-72
2023/09/24 01:22:50;;;;;;;6.25;4.35;;;;;;;9.96;79.62;98961.56;5048477;28;20025;-74
2023/09/24 01:25:20;;;;;;;6.43;4.55;;;;;;;10.00;79.79;98959.25;5030626;28;20044;-71
2023/09/24 01:27:46;;;;;;;5.68;4.47;;;;;;;10.03;79.96;98964.19;5049127;28;20038;-70
2023/09/24 01:30:13;;;;;;;7.10;4.97;;;;;;;9.95;80.46;98956.38;5051259;28;20033;-71
2023/09/24 01:32:40;;;;;;;4.82;4.35;;;;;;;10.07;80.60;98963.53;5050708;28;20045;-71
2023/09/24 01:35:06;;;;;;;6.10;5.50;;;;;;;10.09;80.74;98969.50;5043042;28;20049;-70
2023/09/24 01:37:35;;;;;;;5.88;4.53;;;;;;;10.11;81.10;98975.50;5045913;28;20586;-70
2023/09/24 01:40:14;;;;;;;6.22;4.80;;;;;;;10.13;81.14;98972.59;5050670;28;20021;-69
2023/09/24 01:42:39;;;;;;;4.85;4.35;;;;;;;10.11;80.96;98956.66;5046266;28;20124;-70
2023/09/24 01:45:09;;;;;;;5.88;4.40;;;;;;;10.16;80.95;98961.38;5030172;28;20025;-69
2023/09/24 01:47:35;;;;;;;4.50;4.10;;;;;;;10.25;80.69;98976.19;5049526;28;20029;-70
2023/09/24 01:50:00;;;;;;;4.78;3.88;;;;;;;10.20;80.41;98976.03;5050417;28;20032;-70
2023/09/24 01:52:25;;;;;;;8.48;5.80;;;;;;;10.13;81.17;98986.03;5030362;28;20037;-71
2023/09/24 01:54:51;;;;;;;5.95;5.35;;;;;;;10.06;81.26;98986.06;5020948;28;20120;-70
2023/09/24 01:57:17;;;;;;;8.50;5.43;;;;;;;9.98;81.08;98972.09;5060953;28;20041;-69
2023/09/24 01:59:42;;;;;;;7.80;5.03;;;;;;;9.99;81.21;98984.53;5041070;28;20074;-70
2023/09/24 02:02:09;;;;;;;7.05;4.60;;;;;;;9.89;81.25;98966.19;5033856;28;20033;-70
2023/09/24 02:04:37;;;;;;;12.52;5.90;;;;;;;9.88;80.76;98967.22;5050970;28;20102;-71
2023/09/24 02:07:03;;;;;;;7.45;4.53;;;;;;;9.78;80.76;98960.69;5030248;28;20037;-73
2023/09/24 02:09:29;;;;;;;6.32;4.47;;;;;;;9.88;80.37;98977.97;5042535;28;20032;-72
2023/09/24 02:11:57;;;;;;;4.70;4.20;;;;;;;9.84;80.43;98973.25;5046784;28;20041;-73
2023/09/24 02:14:22;;;;;;;6.28;4.25;;;;;;;9.87;80.66;98987.06;5029897;28;20021;-72
2023/09/24 02:16:48;;;;;;;5.28;4.70;;;;;;;9.81;81.26;98987.97;5048038;28;20511;-72
2023/09/24 02:19:14;;;;;;;7.57;4.38;;;;;;;9.78;81.45;98977.63;5050914;28;20033;-70
2023/09/24 02:21:40;;;;;;;7.80;4.93;;;;;;;9.93;81.96;98996.16;5050758;28;20029;-71
2023/09/24 02:24:07;;;;;;;6.25;4.47;;;;;;;9.89;81.67;98995.78;5046523;28;20026;-71
2023/09/24 02:26:33;;;;;;;5.40;3.92;;;;;;;9.93;81.74;98990.75;5032348;28;20439;-71
2023/09/24 02:28:59;;;;;;;6.53;4.45;;;;;;;9.94;81.62;98989.72;5049421;28;20033;-72
2023/09/24 02:31:24;;;;;;;7.22;5.60;;;;;;;9.88;81.50;98980.66;5032597;28;20030;-70
2023/09/24 02:33:49;;;;;;;8.52;6.35;;;;;;;9.63;81.54;98961.84;5025574;28;20060;-71
2023/09/24 02:36:15;;;;;;;7.22;6.32;;;;;;;9.64;80.88;98982.31;5053769;28;20029;-71
2023/09/24 02:38:40;;;;;;;7.40;6.00;;;;;;;9.49;81.08;98976.44;5054074;28;20032;-71
2023/09/24 02:41:06;;;;;;;4.97;4.40;;;;;;;9.49;81.26;98994.44;5053992;28;20040;-71
2023/09/24 02:43:32;;;;;;;6.10;4.18;;;;;;;9.35;80.96;98982.13;5053913;28;20036;-71
2023/09/24 02:45:58;;;;;;;6.68;4.18;;;;;;;9.54;80.56;99006.19;5050360;28;20497;-71
2023/09/24 02:48:24;;;;;;;11.10;6.07;;;;;;;9.48;81.11;99003.53;5046331;28;20060;-72
2023/09/24 02:50:50;;;;;;;6.20;5.22;;;;;;;9.35;80.84;98982.97;5033720;28;20040;-71
2023/09/24 02:53:16;;;;;;;5.57;5.00;;;;;;;9.37;81.56;98996.16;5041232;28;20030;-71
2023/09/24 02:55:41;;;;;;;6.05;4.35;;;;;;;9.25;81.06;98987.16;5047597;28;20588;-71
2023/09/24 02:58:07;;;;;;;4.60;3.88;;;;;;;9.27;80.87;98993.94;5041277;28;20108;-70
2023/09/24 03:02:58;;;;;;;5.05;4.03;;;;;;;9.36;81.13;99018.72;5027297;28;20025;-70
2023/09/24 03:05:24;;;;;;;7.15;5.05;;;;;;;9.38;81.55;99024.72;5037132;28;20072;-70
2023/09/24 03:07:52;;;;;;;6.95;5.43;;;;;;;9.41;82.05;99024.25;5037110;28;20030;-70
2023/09/24 03:10:18;;;;;;;5.72;4.95;;;;;;;9.43;81.71;99023.00;5054667;28;20104;-73
2023/09/24 03:12:44;;;;;;;5.40;4.90;;;;;;;9.46;81.73;99030.66;5053350;28;20025;-73
2023/09/24 03:15:10;;;;;;;5.63;4.93;;;;;;;9.34;81.62;99008.16;5032674;28;20040;-72
2023/09/24 03:17:36;;;;;;;4.53;4.13;;;;;;;9.39;81.52;99024.47;5011118;28;20016;-72
2023/09/24 03:20:14;;;;;;;5.13;3.95;;;;;;;9.41;81.91;99046.59;5033213;28;20493;-72
2023/09/24 03:22:46;;;;;;;7.60;6.35;;;;;;;9.35;81.75;99038.56;5045671;28;20036;-72
2023/09/24 03:25:13;;;;;;;5.10;4.60;;;;;;;9.37;81.47;99056.13;5033080;28;20044;-72
2023/09/24 03:27:39;;;;;;;5.20;4.10;;;;;;;9.28;81.37;99035.94;5046326;28;20504;-72
2023/09/24 03:30:08;;;;;;;4.72;4.32;;;;;;;9.36;81.31;99049.09;5033584;28;20040;-70
2023/09/24 03:32:34;;;;;;;4.93;4.45;;;;;;;9.19;81.49;99031.03;5060093;28;20040;-68
2023/09/24 03:34:59;;;;;;;4.75;4.28;;;;;;;9.18;80.68;99040.94;5054033;28;20033;-69
2023/09/24 03:37:25;;;;;;;5.68;4.82;;;;;;;9.17;80.91;99051.91;5033037;28;20025;-71
2023/09/24 03:39:50;;;;;;;4.82;4.05;;;;;;;9.18;80.62;99051.69;5035591;28;20412;-71
2023/09/24 03:42:16;;;;;;;4.75;4.32;;;;;;;9.05;80.31;99052.56;5052434;28;20507;-70
2023/09/24 03:44:41;;;;;;;4.43;3.47;;;;;;;9.04;80.30;99047.41;5053476;28;20041;-71
2023/09/24 03:47:06;;;;;;;4.30;3.90;;;;;;;9.05;81.07;99057.94;5035987;28;20051;-70
2023/09/24 03:49:32;;;;;;;10.15;7.07;;;;;;;9.08;80.44;99056.69;5045338;28;20037;-69
2023/09/24 03:51:57;;;;;;;6.40;5.28;;;;;;;9.11;80.49;99072.38;5032865;28;20025;-69
2023/09/24 03:54:22;;;;;;;5.78;4.05;;;;;;;9.01;80.95;99063.94;5032354;28;20400;-69
2023/09/24 03:56:49;;;;;;;4.47;3.60;;;;;;;9.11;80.91;99083.13;5043480;28;20051;-71
2023/09/24 03:59:15;;;;;;;4.45;3.90;;;;;;;9.04;80.23;99071.59;5049324;28;20042;-69
2023/09/24 04:01:41;;;;;;;7.55;5.18;;;;;;;8.89;80.63;99058.41;5049342;28;20022;-69
2023/09/24 04:04:06;;;;;;;5.90;4.90;;;;;;;9.06;81.09;99101.75;5032048;28;20485;-69
2023/09/24 04:06:31;;;;;;;7.55;6.07;;;;;;;8.80;80.57;99075.81;5045761;28;20082;-68
2023/09/24 04:08:57;;;;;;;6.10;4.00;;;;;;;8.94;80.71;99098.91;5032332;28;20036;-68
2023/09/24 04:11:22;;;;;;;5.93;5.35;;;;;;;8.80;80.16;99091.09;5046861;28;20021;-70
2023/09/24 04:13:47;;;;;;;4.82;4.32;;;;;;;8.68;80.80;99092.78;5031919;28;20036;-68
2023/09/24 04:16:13;;;;;;;6.85;6.03;;;;;;;8.63;80.69;99101.47;5046558;28;20037;-69
2023/09/24 04:18:41;;;;;;;6.95;5.00;;;;;;;8.74;80.30;99121.47;5032194;28;20036;-69
2023/09/24 04:21:16;;;;;;;5.00;4.50;;;;;;;8.73;80.63;99117.13;5045735;28;20025;-71
2023/09/24 04:23:42;;;;;;;6.72;5.82;;;;;;;8.61;81.17;99108.91;5048391;28;20041;-71
2023/09/24 04:26:09;;;;;;;6.43;5.10;;;;;;;8.70;80.13;99131.00;5047095;28;20032;-70
2023/09/24 04:28:35;;;;;;;5.93;4.65;;;;;;;8.60;81.32;99119.84;5048530;28;20635;-70
2023/09/24 04:31:00;;;;;;;5.68;4.25;;;;;;;8.64;80.48;99123.75;5047966;28;20029;-70
2023/09/24 04:33:26;;;;;;;5.15;4.30;;;;;;;8.70;80.54;99133.69;5052929;28;20032;-69
2023/09/24 04:35:51;;;;;;;4.82;4.30;;;;;;;8.75;81.41;99144.63;5039707;28;20035;-69
2023/09/24 04:38:17;;;;;;;6.63;5.60;;;;;;;8.74;80.68;99145.66;5048512;28;20050;-70
2023/09/24 04:40:42;;;;;;;6.32;5.60;;;;;;;8.60;81.49;99127.91;5048327;28;20029;-69
2023/09/24 04:43:08;;;;;;;6.15;5.22;;;;;;;8.70;81.06;99149.78;5033026;28;20041;-69
2023/09/24 04:45:35;;;;;;;6.28;4.72;;;;;;;8.74;80.72;99151.03;5047054;28;20029;-69
2023/09/24 04:48:00;;;;;;;6.88;4.70;;;;;;;8.78;81.48;99146.88;5043518;28;20030;-68
2023/09/24 04:50:26;;;;;;;5.85;4.65;;;;;;;8.77;81.52;99153.31;5043401;28;20496;-68
2023/09/24 04:52:54;;;;;;;7.55;4.07;;;;;;;8.71;81.83;99140.69;5047743;28;20545;-70
2023/09/24 04:55:20;;;;;;;7.03;4.35;;;;;;;8.69;80.96;99132.84;5047207;28;20108;-70
2023/09/24 04:57:46;;;;;;;4.72;4.28;;;;;;;8.94;81.51;99170.59;5048108;28;20475;-70
2023/09/24 05:00:13;;;;;;;4.50;4.10;;;;;;;9.03;81.61;99166.69;5033814;28;20025;-70
2023/09/24 05:02:38;;;;;;;6.40;5.07;;;;;;;9.09;81.21;99167.69;5047881;28;20064;-69
2023/09/24 05:05:04;;;;;;;7.38;5.78;;;;;;;9.14;81.70;99173.25;5046543;28;20032;-70
2023/09/24 05:07:29;;;;;;;9.30;7.97;;;;;;;9.13;81.73;99175.09;5044745;28;20463;-69
2023/09/24 05:09:55;;;;;;;7.40;6.57;;;;;;;9.08;81.89;99180.28;5046819;28;20044;-69
2023/09/24 05:12:22;;;;;;;35.13;9.52;;;;;;;8.98;81.65;99182.59;5052247;28;20034;-69
2023/09/24 05:14:47;;;;;;;70.22;45.42;;;;;;;8.87;81.92;99180.53;5037517;28;20535;-70
2023/09/24 05:17:13;;;;;;;323.67;101.10;;;;;;;8.89;81.92;99191.91;5035126;28;20037;-69
2023/09/24 05:19:38;;;;;;;325.73;98.40;;;;;;;8.83;82.63;99187.38;5036963;28;20071;-70
2023/09/24 05:22:04;;;;;;;514.35;84.05;;;;;;;8.77;82.90;99189.03;5039319;28;20044;-70
2023/09/24 05:24:32;;;;;;;147.30;24.83;;;;;;;8.83;83.28;99200.78;5047545;28;20132;-70
2023/09/24 05:26:57;;;;;;;401.83;34.78;;;;;;;8.65;84.93;99195.25;5047510;28;20095;-72
2023/09/24 05:29:23;;;;;;;165.48;26.67;;;;;;;8.62;85.55;99211.75;5031693;28;20029;-70
2023/09/24 05:31:49;;;;;;;374.73;37.53;;;;;;;8.57;86.75;99209.69;5047292;28;20396;-71
2023/09/24 05:34:15;;;;;;;726.53;115.10;;;;;;;8.64;86.37;99204.31;5036776;28;20037;-71
2023/09/24 05:36:40;;;;;;;817.17;151.82;;;;;;;8.72;86.17;99222.91;5051981;28;20485;-72
2023/09/24 05:39:06;;;;;;;517.35;102.55;;;;;;;8.82;86.64;99215.28;5038666;28;20035;-72
2023/09/24 05:41:31;;;;;;;290.15;52.72;;;;;;;8.87;86.31;99199.34;5030747;28;20555;-72
2023/09/24 05:44:02;;;;;;;68.53;20.15;;;;;;;9.12;86.18;99212.94;5033353;28;20476;-70
2023/09/24 05:46:28;;;;;;;42.58;13.20;;;;;;;9.20;86.20;99210.03;5048400;28;20036;-73
2023/09/24 05:48:55;;;;;;;57.33;13.68;;;;;;;9.32;86.45;99217.22;5045277;28;20041;-72
2023/09/24 05:51:21;;;;;;;34.25;14.50;;;;;;;9.41;86.82;99215.97;5046857;28;20033;-72
2023/09/24 05:53:46;;;;;;;41.40;20.95;;;;;;;9.48;86.46;99222.16;5046763;28;20389;-73
2023/09/24 05:56:11;;;;;;;22.15;14.95;;;;;;;9.43;87.09;99211.19;5031777;28;20048;-72
2023/09/24 05:58:37;;;;;;;17.08;14.00;;;;;;;9.44;87.05;99191.34;5031726;28;20107;-71
2023/09/24 06:01:03;;;;;;;43.92;20.25;;;;;;;9.59;86.76;99209.91;5040059;28;20127;-72
2023/09/24 06:03:29;;;;;;;50.17;15.60;;;;;;;9.60;86.55;99206.16;5044615;28;20107;-72
2023/09/24 06:05:54;;;;;;;49.58;14.85;;;;;;;9.57;86.05;99203.91;5029972;28;20612;-74
2023/09/24 06:08:20;;;;;;;43.58;17.60;;;;;;;9.77;86.13;99233.41;5044730;28;20025;-71
2023/09/24 06:10:46;;;;;;;47.03;18.95;;;;;;;9.60;86.32;99223.13;5046532;28;20030;-71
2023/09/24 06:13:15;;;;;;;27.50;15.73;;;;;;;9.60;85.55;99239.28;5044685;28;20507;-71
2023/09/24 06:15:41;;;;;;;52.97;16.20;;;;;;;9.52;85.64;99236.81;5049234;28;20033;-72
2023/09/24 06:18:08;;;;;;;38.80;15.73;;;;;;;9.52;85.73;99246.75;5046285;28;20079;-73
2023/09/24 06:20:38;;;;;;;208.75;29.02;;;;;;;9.37;85.46;99233.56;5038557;28;20041;-71
2023/09/24 06:23:04;;;;;;;149.48;18.92;;;;;;;9.44;85.86;99238.91;5046237;28;20038;-71
2023/09/24 06:25:29;;;;;;;147.27;26.17;;;;;;;9.70;86.14;99255.81;5035384;28;20067;-71
2023/09/24 06:27:55;;;;;;;146.65;27.15;;;;;;;9.70;85.79;99245.03;5029821;28;20120;-73
2023/09/24 06:30:20;;;;;;;92.57;19.50;;;;;;;9.63;85.19;99233.47;5031044;28;20037;-71
2023/09/24 06:32:45;;;;;;;66.38;16.70;;;;;;;9.72;85.86;99255.56;5044062;28;20155;-72
2023/09/24 06:35:11;;;;;;;57.90;14.75;;;;;;;9.81;85.79;99258.84;5022076;28;20378;-72
2023/09/24 06:37:36;;;;;;;93.28;13.85;;;;;;;9.92;85.18;99264.38;5050815;28;20033;-71
2023/09/24 06:40:02;;;;;;;61.35;12.68;;;;;;;9.97;85.25;99269.13;5029602;28;20032;-71
2023/09/24 06:42:27;;;;;;;32.47;12.30;;;;;;;9.99;84.61;99248.22;5032795;28;20033;-71
2023/09/24 06:44:53;;;;;;;150.73;17.35;;;;;;;10.08;84.81;99253.13;5042806;28;20030;-73
2023/09/24 06:47:18;;;;;;;141.90;15.88;;;;;;;10.02;84.46;99247.78;5030233;28;20040;-74
2023/09/24 06:49:47;;;;;;;140.23;14.20;;;;;;;10.07;84.55;99277.56;5039593;28;20026;-72
2023/09/24 06:52:12;;;;;;;99.32;14.02;;;;;;;10.13;84.66;99274.03;5029379;28;20568;-72
2023/09/24 06:54:38;;;;;;;46.25;10.00;;;;;;;10.17;84.21;99267.19;5038472;28;20028;-72
2023/09/24 06:57:03;;;;;;;113.85;13.82;;;;;;;10.13;83.56;99264.09;5050635;28;20121;-71
2023/09/24 06:59:28;;;;;;;115.18;13.20;;;;;;;10.21;84.67;99271.09;5050615;28;20083;-71
2023/09/24 07:01:54;;;;;;;109.95;16.13;;;;;;;10.25;84.00;99258.84;5041227;28;20504;-72
2023/09/24 07:04:19;;;;;;;138.20;12.75;;;;;;;10.45;83.87;99272.22;5039239;28;20025;-74
2023/09/24 07:06:45;;;;;;;62.67;12.35;;;;;;;10.66;83.95;99288.84;5048386;28;20100;-72
2023/09/24 07:09:10;;;;;;;378.30;23.90;;;;;;;10.54;83.88;99262.81;5046505;28;20459;-73
2023/09/24 07:11:37;;;;;;;91.85;11.02;;;;;;;10.56;83.95;99261.56;5017699;28;20095;-72
2023/09/24 07:14:06;;;;;;;231.50;18.63;;;;;;;10.78;83.74;99268.22;5022548;28;20058;-72
2023/09/24 07:16:32;;;;;;;77.65;10.88;;;;;;;10.79;84.11;99267.19;5041098;28;20083;-72
2023/09/24 07:18:57;;;;;;;59.45;11.60;;;;;;;10.84;84.11;99272.75;5033460;28;20393;-72
2023/09/24 07:21:26;;;;;;;66.43;10.57;;;;;;;10.92;83.78;99275.16;5046500;28;20033;-71
2023/09/24 07:23:52;;;;;;;87.57;11.93;;;;;;;10.80;84.07;99266.16;5048263;28;20028;-72
2023/09/24 07:26:18;;;;;;;121.65;13.20;;;;;;;11.00;83.78;99285.69;5049856;28;20404;-74
2023/09/24 07:28:44;;;;;;;135.73;12.77;;;;;;;11.05;83.50;99272.38;5033214;28;20037;-72
2023/09/24 07:31:21;;;;;;;56.58;9.95;;;;;;;11.20;83.26;99290.06;5046254;28;20091;-72
2023/09/24 07:33:46;;;;;;;81.93;14.98;;;;;;;11.15;83.31;99276.44;5039977;28;20046;-74
2023/09/24 07:36:12;;;;;;;26.45;8.90;;;;;;;11.28;82.92;99287.06;5038782;28;20024;-75
2023/09/24 07:38:39;;;;;;;26.73;10.77;;;;;;;11.47;82.88;99286.06;5069238;28;20086;-72
2023/09/24 07:41:07;;;;;;;10.40;8.57;;;;;;;11.53;82.69;99261.72;5047748;28;20049;-72
2023/09/24 07:43:33;;;;;;;11.63;7.43;;;;;;;11.86;82.61;99298.31;5044692;28;20540;-73
2023/09/24 07:45:58;;;;;;;24.42;8.77;;;;;;;11.84;82.75;99293.16;5047211;28;20025;-73
2023/09/24 07:48:24;;;;;;;33.88;9.05;;;;;;;11.83;82.40;99296.91;5027021;28;20059;-72
2023/09/24 07:50:54;;;;;;;55.92;9.82;;;;;;;11.86;82.88;99296.44;5052159;28;20040;-72
2023/09/24 07:53:22;;;;;;;73.22;14.25;;;;;;;11.91;83.09;99293.91;5053493;28;20120;-72
2023/09/24 07:55:55;;;;;;;28.60;9.52;;;;;;;12.06;82.98;99293.50;5039733;28;20067;-72
2023/09/24 07:58:24;;;;;;;10.13;8.65;;;;;;;11.96;83.15;99294.03;5040332;28;20026;-72
2023/09/24 08:00:51;;;;;;;14.38;9.23;;;;;;;12.09;82.63;99291.19;5040008;28;20079;-72
2023/09/24 08:03:17;;;;;;;13.07;10.38;;;;;;;11.86;83.54;99295.63;5038651;28;20041;-71
2023/09/24 08:05:42;;;;;;;14.98;10.85;;;;;;;11.79;83.52;99295.69;5031658;28;20032;-72
2023/09/24 08:08:08;;;;;;;13.70;11.13;;;;;;;11.82;83.65;99310.63;5045248;28;20041;-72
2023/09/24 08:10:33;;;;;;;14.32;11.20;;;;;;;11.73;84.54;99307.41;5046487;28;20039;-73
2023/09/24 08:12:58;;;;;;;12.95;11.57;;;;;;;11.66;84.48;99306.63;5045050;28;20826;-72
2023/09/24 08:15:24;;;;;;;14.00;12.48;;;;;;;11.66;84.18;99306.63;5052756;28;20111;-72
2023/09/24 08:17:49;;;;;;;17.88;13.13;;;;;;;11.73;83.93;99312.81;5038521;28;20374;-73
2023/09/24 08:20:15;;;;;;;11.27;10.27;;;;;;;11.81;84.65;99314.38;5046430;28;20035;-72
2023/09/24 08:22:40;;;;;;;13.65;12.30;;;;;;;11.54;84.48;99287.66;5036815;28;20091;-72
2023/09/24 08:25:06;;;;;;;14.43;12.75;;;;;;;11.90;84.16;99319.25;5038918;28;20021;-72
2023/09/24 08:27:31;;;;;;;14.27;12.90;;;;;;;11.89;84.52;99320.28;5048272;28;20049;-73
2023/09/24 08:29:56;;;;;;;13.77;12.57;;;;;;;11.77;84.13;99297.78;5031512;28;20025;-72
2023/09/24 08:32:23;;;;;;;14.88;13.38;;;;;;;12.02;84.57;99317.44;5032826;28;20037;-72
2023/09/24 08:34:49;;;;;;;16.88;15.15;;;;;;;11.88;84.42;99328.63;5050638;28;20032;-72
2023/09/24 08:37:14;;;;;;;16.83;15.13;;;;;;;11.95;83.96;99322.09;5031344;28;20409;-71
2023/09/24 08:39:40;;;;;;;15.57;14.07;;;;;;;12.13;83.87;99324.78;5032672;28;20017;-74
2023/09/24 08:42:08;;;;;;;13.98;12.63;;;;;;;12.07;83.60;99320.28;5044036;28;20064;-71
2023/09/24 08:44:36;;;;;;;16.17;14.40;;;;;;;12.03;84.32;99308.28;5044871;28;20504;-72
2023/09/24 08:47:02;;;;;;;15.60;14.07;;;;;;;12.16;83.52;99310.81;5041093;28;20385;-72
2023/09/24 08:49:27;;;;;;;13.98;12.52;;;;;;;12.32;84.12;99322.91;5044790;28;20084;-72
2023/09/24 08:51:54;;;;;;;13.25;11.65;;;;;;;12.32;84.24;99328.28;5027293;28;20032;-72
2023/09/24 08:54:19;;;;;;;13.07;11.73;;;;;;;12.28;84.20;99311.69;5044514;28;20098;-75
2023/09/24 08:56:45;;;;;;;14.05;10.40;;;;;;;12.36;83.73;99313.28;5040572;28;20501;-72
2023/09/24 08:59:10;;;;;;;12.73;11.43;;;;;;;12.58;83.80;99327.13;5031190;28;20109;-72
2023/09/24 09:01:36;;;;;;;13.95;12.55;;;;;;;12.56;82.64;99307.56;5014582;28;20056;-74
2023/09/24 09:04:01;;;;;;;12.88;11.52;;;;;;;12.61;83.45;99315.81;5029802;28;20168;-72
2023/09/24 09:06:34;;;;;;;12.20;11.02;;;;;;;12.75;83.16;99306.47;5031063;28;20109;-72
2023/09/24 09:09:00;;;;;;;14.15;12.43;;;;;;;12.81;83.70;99300.16;5037800;28;20458;-72
2023/09/24 09:11:42;;;;;;;13.52;11.55;;;;;;;12.87;83.00;99315.44;5047308;28;20030;-73
2023/09/24 09:14:09;;;;;;;11.48;10.32;;;;;;;12.93;83.02;99300.97;5039476;28;20124;-72
2023/09/24 09:16:52;;;;;;;11.65;10.55;;;;;;;12.98;82.99;99301.09;5047155;28;20048;-74
2023/09/24 09:19:18;;;;;;;11.05;9.95;;;;;;;13.23;83.35;99304.47;5030848;28;20448;-72
2023/09/24 09:21:43;;;;;;;11.43;10.23;;;;;;;13.17;83.65;99300.00;5036343;28;20017;-72
2023/09/24 09:24:24;;;;;;;11.15;9.93;;;;;;;13.23;82.59;99296.38;5062709;28;20048;-73
2023/09/24 09:26:54;;;;;;;9.65;8.57;;;;;;;13.45;82.84;99308.25;5044075;28;20037;-73
2023/09/24 09:29:21;;;;;;;11.02;8.95;;;;;;;13.42;82.34;99308.69;5041089;28;20051;-73
2023/09/24 09:31:49;;;;;;;10.07;8.32;;;;;;;13.58;82.60;99308.00;5017686;28;20465;-73
2023/09/24 09:34:14;;;;;;;9.80;8.80;;;;;;;13.60;82.24;99305.91;5030182;28;20451;-73
2023/09/24 09:36:39;;;;;;;9.55;8.55;;;;;;;13.73;81.41;99300.22;5033848;28;20029;-74
2023/09/24 09:39:06;;;;;;;9.48;8.00;;;;;;;13.58;81.27;99264.69;5040764;28;20500;-74
2023/09/24 09:41:33;;;;;;;8.55;7.70;;;;;;;14.03;80.76;99293.78;5030445;28;20484;-73
2023/09/24 09:44:03;;;;;;;9.40;8.40;;;;;;;13.81;81.76;99285.50;5040198;28;20041;-73
2023/09/24 09:46:28;;;;;;;9.20;7.82;;;;;;;13.98;81.29;99291.00;5030454;28;20032;-72
2023/09/24 09:49:04;;;;;;;9.05;7.25;;;;;;;14.20;80.37;99300.13;5032193;28;20385;-73
2023/09/24 09:51:36;;;;;;;8.70;6.78;;;;;;;14.34;80.61;99301.50;5046586;28;20128;-72
2023/09/24 09:54:06;;;;;;;7.57;6.88;;;;;;;14.43;79.99;99289.22;5033152;28;20104;-73
2023/09/24 09:56:31;;;;;;;8.93;6.70;;;;;;;14.35;80.23;99276.06;5040158;28;20021;-73
2023/09/24 09:58:57;;;;;;;8.60;6.90;;;;;;;14.65;79.62;99301.03;5033368;28;20508;-72
2023/09/24 10:01:23;;;;;;;7.05;6.15;;;;;;;14.59;79.67;99298.44;5033149;28;20013;-72
2023/09/24 10:03:50;;;;;;;7.82;6.18;;;;;;;14.65;79.02;99287.47;5043627;28;20037;-72
2023/09/24 10:06:15;;;;;;;7.10;5.85;;;;;;;14.70;79.43;99292.16;5049415;28;20027;-72
2023/09/24 10:08:47;;;;;;;6.72;5.82;;;;;;;14.92;78.59;99293.09;5043215;28;20401;-72
2023/09/24 10:11:31;;;;;;;7.05;5.38;;;;;;;14.98;78.53;99287.50;5028195;28;20036;-72
2023/09/24 10:13:56;;;;;;;6.85;6.13;;;;;;;15.12;78.40;99288.81;5047502;28;20029;-72
2023/09/24 10:16:25;;;;;;;8.35;6.38;;;;;;;15.14;77.82;99286.69;5044663;28;20392;-72
2023/09/24 10:19:01;;;;;;;6.32;5.50;;;;;;;15.15;77.38;99288.31;5030629;28;20041;-72
2023/09/24 10:21:31;;;;;;;7.28;5.43;;;;;;;15.15;77.82;99272.03;5046684;28;20029;-73
2023/09/24 10:24:17;;;;;;;6.90;5.60;;;;;;;15.27;76.98;99268.41;5045081;28;20033;-73
2023/09/24 10:27:01;;;;;;;6.93;5.28;;;;;;;15.60;76.13;99284.69;5032910;28;20041;-72
2023/09/24 10:29:45;;;;;;;7.57;5.38;;;;;;;15.60;75.68;99280.09;5030244;28;20055;-72
2023/09/24 10:32:14;;;;;;;5.60;5.07;;;;;;;15.78;75.95;99270.81;5030637;28;20076;-73
2023/09/24 10:34:55;;;;;;;6.07;5.15;;;;;;;15.88;75.47;99273.66;5017783;28;20044;-73
2023/09/24 10:37:30;;;;;;;7.25;4.47;;;;;;;16.06;75.67;99284.22;5051249;28;20505;-73
2023/09/24 10:40:05;;;;;;;4.72;4.28;;;;;;;16.20;74.62;99280.03;5050743;28;20037;-73
2023/09/24 10:42:37;;;;;;;5.35;3.88;;;;;;;16.18;73.19;99271.31;5033087;28;20041;-73
2023/09/24 10:45:09;;;;;;;8.48;3.50;;;;;;;16.30;71.85;99274.72;5050569;28;20033;-73
2023/09/24 10:47:38;;;;;;;5.80;3.35;;;;;;;16.47;72.07;99264.59;5051001;28;20381;-73
2023/09/24 10:50:19;;;;;;;4.55;3.63;;;;;;;16.56;71.11;99265.81;5056201;28;20040;-72
2023/09/24 10:52:59;;;;;;;3.75;2.80;;;;;;;16.66;69.76;99261.53;5036920;28;20510;-72
2023/09/24 10:55:30;;;;;;;3.05;2.50;;;;;;;16.75;67.69;99265.44;5033544;28;20037;-73
2023/09/24 10:58:15;;;;;;;3.83;2.50;;;;;;;16.71;67.33;99259.66;5054215;28;20072;-72
2023/09/24 11:00:45;;;;;;;3.20;2.58;;;;;;;16.87;67.52;99260.66;5035430;28;20108;-72
2023/09/24 11:03:13;;;;;;;3.92;2.40;;;;;;;16.77;67.82;99263.25;5016672;28;20489;-72
2023/09/24 11:05:47;;;;;;;2.75;2.38;;;;;;;16.52;67.23;99247.53;5034430;28;20104;-72
2023/09/24 11:08:14;;;;;;;4.18;2.47;;;;;;;16.87;66.90;99247.03;5054205;28;20037;-72
2023/09/24 11:10:40;;;;;;;2.30;1.92;;;;;;;17.06;65.41;99256.47;5036598;28;20051;-72
2023/09/24 11:13:06;;;;;;;2.47;1.70;;;;;;;17.25;64.75;99250.31;5016809;28;20112;-72
2023/09/24 11:15:37;;;;;;;4.00;1.77;;;;;;;17.40;64.49;99244.16;5032590;28;20119;-72
2023/09/24 11:18:02;;;;;;;3.08;2.08;;;;;;;17.52;63.97;99253.00;5029511;28;20044;-73
2023/09/24 11:20:31;;;;;;;3.60;2.03;;;;;;;17.67;63.46;99253.06;5024072;28;20029;-72
2023/09/24 11:23:03;;;;;;;5.00;2.00;;;;;;;17.72;63.44;99236.75;5035863;28;20539;-73
2023/09/24 11:25:29;;;;;;;4.50;2.20;;;;;;;17.87;62.81;99247.75;5035753;28;20037;-73
2023/09/24 11:27:59;;;;;;;2.85;1.95;;;;;;;17.67;62.55;99231.28;5034683;28;20485;-73
2023/09/24 11:30:38;;;;;;;2.85;2.00;;;;;;;17.80;61.47;99224.53;5025293;28;20083;-73
2023/09/24 11:33:13;;;;;;;3.60;2.20;;;;;;;17.88;62.27;99237.63;5035868;28;20044;-74